Time;durP1;ratioP1;P1;durP2;ratioP2;P2;SDS_P1;SDS_P2;PMS_P1;PMS_P2;Temp;Humidity;BMP_temperature;BMP_pressure;BME280_temperature;BME280_humidity;BME280_pressure;Samples;Min_cycle;Max_cycle;Signal;HPM_P1;HPM_P2
2022/05/06 00:00:16;;;;;;;17.93;10.60;;;15.30;67.80;;;;;;4954901;28;20217;-96
2022/05/06 00:02:51;;;;;;;17.73;11.07;;;15.30;67.10;;;;;;5023627;28;20716;-96
2022/05/06 00:05:31;;;;;;;20.27;10.77;;;15.30;67.60;;;;;;5025977;28;20204;-96
2022/05/06 00:11:08;;;;;;;16.73;11.47;;;15.20;68.10;;;;;;5023599;28;20201;-96
2022/05/06 00:13:45;;;;;;;17.90;11.13;;;15.10;67.90;;;;;;5016141;28;20223;-96
2022/05/06 00:19:39;;;;;;;21.57;11.77;;;15.10;68.70;;;;;;5243898;22;20252;-96
2022/05/06 00:22:14;;;;;;;15.87;11.03;;;15.10;68.00;;;;;;5035832;28;20272;-96
2022/05/06 00:24:52;;;;;;;17.50;11.10;;;15.10;68.10;;;;;;5027085;28;20215;-96
2022/05/06 00:27:27;;;;;;;18.37;11.13;;;15.00;68.30;;;;;;5043236;28;20205;-96
2022/05/06 00:29:57;;;;;;;20.13;11.93;;;15.00;67.90;;;;;;5046541;28;20645;-96
2022/05/06 00:32:33;;;;;;;17.13;10.03;;;15.00;68.00;;;;;;5041809;28;20727;-96
2022/05/06 00:35:06;;;;;;;18.43;11.13;;;15.00;68.50;;;;;;5046063;28;20201;-96
2022/05/06 00:37:37;;;;;;;17.00;10.37;;;14.90;68.10;;;;;;5028726;28;20296;-96
2022/05/06 00:40:50;;;;;;;18.37;11.10;;;14.90;67.90;;;;;;5047152;28;20230;-96
2022/05/06 00:43:19;;;;;;;23.43;12.67;;;14.90;67.80;;;;;;5029343;28;20196;-96
2022/05/06 00:46:31;;;;;;;16.33;10.33;;;14.90;67.50;;;;;;5035806;28;20203;-96
2022/05/06 00:49:10;;;;;;;17.00;10.80;;;14.80;67.70;;;;;;5017110;28;20205;-96
2022/05/06 00:51:51;;;;;;;18.60;10.57;;;14.80;67.20;;;;;;5028643;28;20204;-96
2022/05/06 00:54:27;;;;;;;17.73;10.80;;;14.80;67.00;;;;;;5053847;28;20192;-96
2022/05/06 00:57:02;;;;;;;18.03;10.00;;;14.70;67.50;;;;;;5050376;28;20236;-95
2022/05/06 01:02:23;;;;;;;16.30;10.30;;;14.60;67.10;;;;;;5030864;28;20197;-96
2022/05/06 01:04:54;;;;;;;19.53;10.80;;;14.60;67.10;;;;;;5042375;28;20212;-96
2022/05/06 01:07:28;;;;;;;16.80;10.40;;;14.60;66.90;;;;;;5041645;28;20212;-96
2022/05/06 01:10:28;;;;;;;17.93;10.87;;;14.60;67.20;;;;;;5030416;28;20208;-96
2022/05/06 01:18:35;;;;;;;19.93;11.93;;;14.50;67.00;;;;;;5045676;28;20238;-96
2022/05/06 01:21:06;;;;;;;18.57;10.23;;;14.40;66.70;;;;;;5054847;28;20210;-96
2022/05/06 01:23:45;;;;;;;16.60;10.97;;;14.30;66.80;;;;;;5052173;28;20208;-96
2022/05/06 01:26:19;;;;;;;20.70;10.73;;;14.30;67.20;;;;;;5044985;28;20223;-96
2022/05/06 01:28:54;;;;;;;19.43;11.40;;;14.30;67.30;;;;;;5032660;28;20199;-96
2022/05/06 01:35:05;;;;;;;14.70;10.00;;;14.20;67.20;;;;;;5069539;28;20640;-96
2022/05/06 01:37:46;;;;;;;24.27;12.30;;;14.20;67.40;;;;;;5062398;28;20294;-96
2022/05/06 01:43:40;;;;;;;16.20;10.97;;;14.10;67.80;;;;;;4974913;28;20383;-96
2022/05/06 01:48:59;;;;;;;15.00;10.00;;;14.00;67.60;;;;;;5046584;22;20236;-95
2022/05/06 01:51:28;;;;;;;18.97;10.90;;;14.00;67.40;;;;;;5040838;28;20334;-96
2022/05/06 01:53:56;;;;;;;22.27;11.97;;;14.00;67.50;;;;;;5039252;28;20222;-94
2022/05/06 01:56:30;;;;;;;15.33;10.07;;;13.90;67.50;;;;;;5039883;28;20258;-96
2022/05/06 02:06:58;;;;;;;19.77;10.57;;;13.80;67.50;;;;;;5043762;28;20252;-96
2022/05/06 02:09:28;;;;;;;19.73;11.47;;;13.80;67.60;;;;;;5043199;28;20222;-96
2022/05/06 02:11:56;;;;;;;17.67;10.37;;;13.70;67.50;;;;;;5041343;28;20640;-96
2022/05/06 02:14:44;;;;;;;15.70;10.40;;;13.70;68.40;;;;;;5038935;28;20294;-96
2022/05/06 02:17:25;;;;;;;20.50;10.47;;;13.70;68.10;;;;;;5043686;28;20241;-96
2022/05/06 02:19:56;;;;;;;14.97;9.30;;;13.70;68.00;;;;;;5044656;28;20207;-96
2022/05/06 02:22:45;;;;;;;25.57;12.13;;;13.60;68.00;;;;;;5044112;28;20207;-96
2022/05/06 02:25:38;;;;;;;18.33;10.33;;;13.60;68.50;;;;;;5049421;28;20275;-96
2022/05/06 02:41:26;;;;;;;15.87;10.20;;;13.40;68.90;;;;;;5033369;28;20231;-96
2022/05/06 02:47:57;;;;;;;12.83;9.97;;;13.40;68.90;;;;;;5025274;28;20215;-96
2022/05/06 02:57:04;;;;;;;15.67;9.07;;;13.30;69.00;;;;;;5012306;28;20239;-96
2022/05/06 02:59:57;;;;;;;14.73;9.87;;;13.30;68.70;;;;;;5031016;28;20207;-96
2022/05/06 03:02:26;;;;;;;20.87;11.10;;;13.30;68.70;;;;;;5027668;28;20314;-96
2022/05/06 03:08:05;;;;;;;17.30;10.27;;;13.20;68.50;;;;;;5014647;28;20274;-95
2022/05/06 03:10:39;;;;;;;20.80;10.40;;;13.20;68.20;;;;;;5015192;28;20271;-95
2022/05/06 03:13:13;;;;;;;14.63;9.77;;;13.20;69.00;;;;;;5018406;28;20952;-96
2022/05/06 03:15:43;;;;;;;22.07;11.77;;;13.10;69.20;;;;;;5017753;28;20218;-95
2022/05/06 03:18:12;;;;;;;17.50;11.00;;;13.10;68.60;;;;;;5017482;28;20229;-95
2022/05/06 03:23:36;;;;;;;23.23;12.40;;;13.00;68.70;;;;;;5017194;28;20212;-95
2022/05/06 03:26:06;;;;;;;20.53;11.67;;;13.00;69.00;;;;;;5016910;28;20208;-95
2022/05/06 03:28:39;;;;;;;19.43;12.67;;;13.00;69.50;;;;;;5018198;28;20206;-96
2022/05/06 03:31:11;;;;;;;19.40;12.40;;;13.00;69.70;;;;;;5014444;28;20224;-96
2022/05/06 03:33:46;;;;;;;30.03;13.17;;;12.90;70.10;;;;;;4999791;28;20220;-96
2022/05/06 03:36:15;;;;;;;19.67;13.37;;;12.90;70.30;;;;;;5012720;28;20228;-96
2022/05/06 03:38:45;;;;;;;21.10;12.97;;;12.90;71.30;;;;;;5016045;28;20627;-96
2022/05/06 03:41:30;;;;;;;28.43;14.10;;;12.90;71.80;;;;;;5001278;28;20232;-96
2022/05/06 03:44:03;;;;;;;19.23;12.83;;;12.90;72.20;;;;;;5019310;28;20302;-96
2022/05/06 03:46:43;;;;;;;24.10;12.57;;;12.90;71.60;;;;;;5021540;28;20275;-96
2022/05/06 03:49:14;;;;;;;27.03;13.27;;;12.90;72.10;;;;;;5022553;28;20208;-96
2022/05/06 03:51:57;;;;;;;15.00;11.30;;;12.90;71.70;;;;;;5030800;28;20209;-96
2022/05/06 03:54:26;;;;;;;26.43;13.00;;;12.80;72.30;;;;;;5027304;28;20240;-95
2022/05/06 03:57:02;;;;;;;19.53;12.10;;;12.80;72.00;;;;;;5015321;28;20227;-96
2022/05/06 04:02:37;;;;;;;15.17;11.27;;;12.80;72.90;;;;;;5020561;28;20208;-96
2022/05/06 04:05:22;;;;;;;21.00;12.90;;;12.90;72.70;;;;;;5030000;28;20242;-96
2022/05/06 04:10:44;;;;;;;22.90;12.53;;;12.90;73.00;;;;;;5024877;28;20754;-96
2022/05/06 04:25:18;;;;;;;20.33;12.43;;;12.80;72.90;;;;;;5025168;28;20238;-96
2022/05/06 04:27:53;;;;;;;23.00;13.37;;;12.70;72.50;;;;;;5026127;28;20624;-96
2022/05/06 04:30:23;;;;;;;19.13;12.37;;;12.70;73.00;;;;;;5008255;28;20197;-96
2022/05/06 04:32:50;;;;;;;22.70;13.03;;;12.70;72.90;;;;;;5036976;28;20227;-95
2022/05/06 04:35:19;;;;;;;23.30;12.03;;;12.70;72.70;;;;;;5035649;28;20262;-95
2022/05/06 04:37:47;;;;;;;19.47;12.57;;;12.70;72.50;;;;;;5037307;28;20370;-94
2022/05/06 04:40:34;;;;;;;13.37;10.87;;;12.70;72.00;;;;;;5028261;28;20202;-97
2022/05/06 04:43:03;;;;;;;16.17;10.50;;;12.70;72.40;;;;;;5011496;28;20322;-95
2022/05/06 04:46:06;;;;;;;17.00;10.40;;;12.70;71.90;;;;;;5015239;28;20213;-96
2022/05/06 04:51:35;;;;;;;16.87;10.93;;;12.60;72.10;;;;;;5016966;28;20266;-96
2022/05/06 04:54:02;;;;;;;17.27;10.83;;;12.60;71.80;;;;;;5018322;28;20223;-95
2022/05/06 04:59:15;;;;;;;15.20;10.30;;;12.60;72.50;;;;;;5032535;28;20183;-95
2022/05/06 05:01:48;;;;;;;20.27;11.87;;;12.60;71.50;;;;;;5030627;28;20548;-94
2022/05/06 05:04:17;;;;;;;20.13;12.23;;;12.50;71.90;;;;;;5012669;28;20841;-93
2022/05/06 05:06:46;;;;;;;17.37;10.73;;;12.50;71.70;;;;;;5012543;28;20208;-93
2022/05/06 05:09:15;;;;;;;22.67;12.17;;;12.50;72.50;;;;;;5014913;28;20203;-93
2022/05/06 05:11:52;;;;;;;25.10;12.77;;;12.50;72.10;;;;;;5010096;28;20208;-95
2022/05/06 05:14:21;;;;;;;19.27;11.60;;;12.50;72.80;;;;;;5001898;28;20190;-93
2022/05/06 05:16:51;;;;;;;21.33;11.87;;;12.50;72.60;;;;;;5000973;28;20281;-93
2022/05/06 05:19:27;;;;;;;17.07;11.30;;;12.50;72.60;;;;;;5015047;28;20604;-93
2022/05/06 05:22:00;;;;;;;20.90;12.60;;;12.50;73.20;;;;;;5016370;28;20233;-91
2022/05/06 05:27:14;;;;;;;23.57;12.67;;;12.50;73.60;;;;;;5019267;28;20229;-94
2022/05/06 05:29:45;;;;;;;21.57;12.30;;;12.40;72.90;;;;;;5013456;28;20199;-96
2022/05/06 05:32:18;;;;;;;16.13;10.93;;;12.40;73.50;;;;;;5018128;28;20202;-94
2022/05/06 05:34:46;;;;;;;18.73;11.70;;;12.40;74.30;;;;;;5015054;28;20271;-94
2022/05/06 05:37:16;;;;;;;18.00;11.77;;;12.40;74.10;;;;;;5023003;28;20229;-96
2022/05/06 05:39:45;;;;;;;17.93;11.83;;;12.40;74.90;;;;;;5021890;28;20222;-95
2022/05/06 05:42:16;;;;;;;27.63;13.53;;;12.40;74.30;;;;;;5014583;28;20274;-94
2022/05/06 05:50:19;;;;;;;16.93;11.53;;;12.50;74.50;;;;;;5025825;28;20200;-96
2022/05/06 05:52:47;;;;;;;23.43;12.63;;;12.50;75.10;;;;;;5021368;28;20267;-95
2022/05/06 05:55:20;;;;;;;15.70;10.70;;;12.50;74.80;;;;;;5020608;28;20210;-93
2022/05/06 05:57:47;;;;;;;26.10;13.47;;;12.50;75.80;;;;;;5019987;28;20230;-94
2022/05/06 06:00:23;;;;;;;24.87;13.93;;;12.60;75.40;;;;;;5019704;28;20591;-95
2022/05/06 06:02:51;;;;;;;24.27;13.73;;;12.60;75.80;;;;;;5020463;28;20282;-96
2022/05/06 06:08:23;;;;;;;18.83;12.43;;;12.70;77.10;;;;;;5002214;28;20209;-94
2022/05/06 06:10:51;;;;;;;17.73;12.23;;;12.70;76.20;;;;;;5010469;28;20447;-93
2022/05/06 06:13:24;;;;;;;20.47;12.93;;;12.80;76.50;;;;;;5003995;28;20198;-96
2022/05/06 06:15:54;;;;;;;20.67;13.83;;;12.90;77.60;;;;;;5019301;28;20220;-95
2022/05/06 06:18:26;;;;;;;25.23;14.30;;;12.90;77.20;;;;;;5016620;28;20316;-96
2022/05/06 06:20:56;;;;;;;33.47;16.03;;;13.00;77.70;;;;;;5006999;28;20200;-95
2022/05/06 06:23:26;;;;;;;24.63;14.87;;;13.00;77.70;;;;;;5013012;28;20217;-95
2022/05/06 06:25:54;;;;;;;28.20;15.13;;;13.10;78.70;;;;;;5012725;28;20213;-94
2022/05/06 06:28:31;;;;;;;27.67;15.97;;;13.20;78.70;;;;;;5015895;28;20212;-95
2022/05/06 06:31:00;;;;;;;27.67;15.53;;;13.20;79.00;;;;;;5015491;28;20208;-96
2022/05/06 06:33:29;;;;;;;29.77;16.67;;;13.30;79.00;;;;;;5011264;28;20385;-94
2022/05/06 06:38:52;;;;;;;39.37;19.33;;;13.40;80.10;;;;;;5008366;28;20267;-96
2022/05/06 06:41:21;;;;;;;24.03;16.73;;;13.50;80.80;;;;;;5012794;28;20318;-96
2022/05/06 06:47:14;;;;;;;31.37;17.53;;;13.70;81.10;;;;;;5014420;28;20213;-95
2022/05/06 06:49:45;;;;;;;26.97;17.00;;;13.80;80.30;;;;;;5015119;28;20216;-96
2022/05/06 06:52:17;;;;;;;33.83;18.60;;;13.90;80.40;;;;;;5015009;28;20295;-96
2022/05/06 06:54:47;;;;;;;27.60;16.97;;;14.00;81.40;;;;;;5019862;28;20776;-96
2022/05/06 06:57:18;;;;;;;31.43;17.97;;;14.00;81.30;;;;;;5024305;28;20243;-96
2022/05/06 06:59:46;;;;;;;30.17;18.10;;;14.20;81.70;;;;;;5028946;28;20575;-96
2022/05/06 07:02:18;;;;;;;33.60;19.43;;;14.30;81.80;;;;;;5014942;28;20216;-96
2022/05/06 07:04:46;;;;;;;30.00;17.47;;;14.40;82.20;;;;;;5017737;28;20219;-96
2022/05/06 07:13:08;;;;;;;29.00;18.67;;;14.70;83.20;;;;;;5025446;28;20256;-95
2022/05/06 07:15:39;;;;;;;31.53;18.93;;;14.80;82.20;;;;;;5024811;28;20232;-94
2022/05/06 07:18:11;;;;;;;29.83;18.97;;;14.90;81.50;;;;;;5017428;28;20225;-96
2022/05/06 07:20:44;;;;;;;24.90;16.90;;;15.00;81.30;;;;;;5023533;28;20559;-95
2022/05/06 07:23:42;;;;;;;;;;;;;;;;;;;;;
2022/05/06 07:26:28;;;;;;;32.23;19.27;;;15.30;81.80;;;;;;5003210;28;20203;-95
2022/05/06 07:28:57;;;;;;;26.40;17.40;;;15.30;81.30;;;;;;5013457;28;20206;-95
2022/05/06 07:31:24;;;;;;;33.10;19.33;;;15.50;81.20;;;;;;5012834;28;20597;-92
2022/05/06 07:33:51;;;;;;;27.23;17.90;;;15.60;81.20;;;;;;5017004;28;20201;-92
2022/05/06 07:36:24;;;;;;;24.20;16.93;;;15.70;81.10;;;;;;5019433;28;20206;-95
2022/05/06 07:38:53;;;;;;;30.47;17.97;;;15.80;81.80;;;;;;5020467;28;20234;-93
2022/05/06 07:41:20;;;;;;;26.77;15.77;;;15.90;81.30;;;;;;5020274;28;20639;-93
2022/05/06 07:43:50;;;;;;;27.73;17.60;;;16.10;81.00;;;;;;5019096;28;20205;-93
2022/05/06 07:46:18;;;;;;;26.03;16.13;;;16.20;81.10;;;;;;5020631;28;20210;-95
2022/05/06 07:48:46;;;;;;;30.13;17.67;;;16.30;80.20;;;;;;5018186;28;20210;-95
2022/05/06 07:51:19;;;;;;;22.60;14.87;;;16.40;79.70;;;;;;5025663;28;20207;-93
2022/05/06 07:53:52;;;;;;;29.37;15.37;;;16.50;79.50;;;;;;5019180;28;20292;-96
2022/05/06 07:56:22;;;;;;;19.30;12.00;;;16.60;78.70;;;;;;5030780;28;20313;-91
2022/05/06 07:58:54;;;;;;;16.53;12.00;;;16.80;78.20;;;;;;5017087;28;20221;-92
2022/05/06 08:04:35;;;;;;;14.87;11.53;;;17.00;76.60;;;;;;5137179;27;20683;-92
2022/05/06 08:07:15;;;;;;;19.40;11.77;;;17.10;77.00;;;;;;5138291;27;20207;-93
2022/05/06 08:09:43;;;;;;;20.30;12.13;;;17.30;76.30;;;;;;5146026;28;20200;-95
2022/05/06 08:15:08;;;;;;;19.07;11.60;;;17.50;75.90;;;;;;5133770;28;20223;-91
2022/05/06 08:17:39;;;;;;;17.47;11.30;;;17.60;75.00;;;;;;5139728;28;20200;-94
2022/05/06 08:20:11;;;;;;;13.80;10.70;;;17.70;74.50;;;;;;5136954;28;20609;-95
2022/05/06 08:22:43;;;;;;;13.47;9.80;;;17.80;73.80;;;;;;5136126;27;20285;-95
2022/05/06 08:25:16;;;;;;;12.53;9.83;;;17.90;73.40;;;;;;5137677;28;20201;-93
2022/05/06 08:27:49;;;;;;;15.00;10.50;;;18.10;73.00;;;;;;5137351;27;20212;-96
2022/05/06 08:30:19;;;;;;;13.97;9.13;;;18.10;72.80;;;;;;5139477;27;20206;-94
2022/05/06 08:39:27;;;;;;;22.60;11.00;;;18.50;70.90;;;;;;5162672;23;20247;-94
2022/05/06 08:41:57;;;;;;;20.33;10.93;;;18.60;71.20;;;;;;5061961;28;20201;-94
2022/05/06 08:53:35;;;;;;;13.87;8.60;;;19.20;69.50;;;;;;5067817;28;20173;-95
2022/05/06 08:56:05;;;;;;;12.73;8.00;;;19.30;68.60;;;;;;5063120;28;20200;-95
2022/05/06 08:59:01;;;;;;;9.80;7.33;;;19.50;70.10;;;;;;5064510;28;20557;-94
2022/05/06 09:01:37;;;;;;;12.80;8.13;;;19.80;69.50;;;;;;5054700;28;20205;-96
2022/05/06 09:04:05;;;;;;;9.67;7.60;;;20.00;68.00;;;;;;5043967;28;20631;-94
2022/05/06 09:06:34;;;;;;;12.13;8.70;;;20.30;68.30;;;;;;5049437;28;20284;-94
2022/05/06 09:09:05;;;;;;;9.77;7.77;;;20.50;64.90;;;;;;5043628;28;20271;-94
2022/05/06 09:17:50;;;;;;;11.93;7.80;;;21.30;64.20;;;;;;5027718;28;20730;-95
2022/05/06 09:20:22;;;;;;;11.13;7.57;;;21.60;64.50;;;;;;5041677;28;20204;-96
2022/05/06 09:22:51;;;;;;;9.03;7.77;;;21.80;62.80;;;;;;5043817;28;20220;-94
2022/05/06 09:25:42;;;;;;;10.23;7.60;;;22.10;62.30;;;;;;5038821;28;20299;-96
2022/05/06 09:28:23;;;;;;;11.90;8.00;;;22.30;60.70;;;;;;5031254;28;20219;-95
2022/05/06 09:31:39;;;;;;;10.83;7.40;;;22.50;61.50;;;;;;5032276;28;20208;-93
2022/05/06 09:34:12;;;;;;;10.90;7.70;;;22.80;59.90;;;;;;5029705;28;20280;-94
2022/05/06 09:36:45;;;;;;;12.20;8.67;;;23.00;59.90;;;;;;5047804;28;20213;-96
2022/05/06 09:39:14;;;;;;;9.63;7.67;;;23.20;59.20;;;;;;5028138;28;20239;-94
2022/05/06 09:42:03;;;;;;;11.80;7.27;;;23.40;60.20;;;;;;5033979;28;20201;-91
2022/05/06 09:44:33;;;;;;;10.00;8.50;;;23.60;57.60;;;;;;5036560;28;20224;-91
2022/05/06 09:47:12;;;;;;;11.47;8.20;;;23.70;56.90;;;;;;5031710;28;20289;-92
2022/05/06 09:49:40;;;;;;;9.30;7.07;;;23.90;55.80;;;;;;5039949;28;20208;-95
2022/05/06 09:52:12;;;;;;;7.43;6.50;;;24.00;57.30;;;;;;5045015;28;20204;-95
2022/05/06 09:54:42;;;;;;;7.80;6.77;;;24.10;56.30;;;;;;5046011;28;20657;-95
2022/05/06 09:57:13;;;;;;;12.33;8.27;;;24.20;56.40;;;;;;5026737;28;20212;-96
2022/05/06 09:59:46;;;;;;;9.70;6.63;;;24.30;55.50;;;;;;5041187;28;20205;-95
2022/05/06 10:02:19;;;;;;;9.90;7.00;;;24.50;55.90;;;;;;5035318;28;20773;-91
2022/05/06 10:04:49;;;;;;;12.67;8.30;;;24.60;55.80;;;;;;5028065;28;20288;-94
2022/05/06 10:08:08;;;;;;;9.77;7.57;;;24.70;55.00;;;;;;5033183;28;20212;-94
2022/05/06 10:10:39;;;;;;;14.30;8.77;;;24.80;53.40;;;;;;5016782;28;20295;-95
2022/05/06 10:13:17;;;;;;;15.90;10.10;;;25.00;54.50;;;;;;5032012;28;20229;-94
2022/05/06 10:15:49;;;;;;;10.77;7.70;;;25.10;54.00;;;;;;5025973;28;20204;-91
2022/05/06 10:18:33;;;;;;;8.13;6.13;;;25.20;54.00;;;;;;5027996;28;20205;-91
2022/05/06 10:21:11;;;;;;;9.93;7.40;;;25.30;54.00;;;;;;5029899;28;20231;-92
2022/05/06 10:23:50;;;;;;;9.43;7.33;;;25.40;53.20;;;;;;5029661;28;20283;-96
2022/05/06 10:26:45;;;;;;;8.87;6.97;;;25.50;52.80;;;;;;5023701;28;20266;-95
2022/05/06 10:33:03;;;;;;;9.67;6.57;;;25.80;53.40;;;;;;5014415;28;20240;-95
2022/05/06 10:35:42;;;;;;;7.60;6.33;;;25.90;53.60;;;;;;5023128;28;20235;-94
2022/05/06 10:38:27;;;;;;;9.07;6.77;;;26.10;52.00;;;;;;5037241;28;20279;-93
2022/05/06 10:44:08;;;;;;;8.30;5.70;;;26.30;51.90;;;;;;4972150;28;20237;-96
2022/05/06 10:46:43;;;;;;;12.00;7.53;;;26.40;51.60;;;;;;5017133;28;20256;-93
2022/05/06 10:49:50;;;;;;;14.80;9.27;;;26.50;51.60;;;;;;5024474;28;20207;-96
2022/05/06 10:52:44;;;;;;;8.97;7.07;;;26.60;49.90;;;;;;5024775;28;20649;-95
2022/05/06 10:55:14;;;;;;;8.43;6.37;;;26.70;50.00;;;;;;5021246;28;20273;-96
2022/05/06 10:57:56;;;;;;;11.37;7.60;;;26.80;50.70;;;;;;5024444;28;20205;-95
2022/05/06 11:00:26;;;;;;;10.90;6.77;;;26.90;49.30;;;;;;5036464;28;20223;-94
2022/05/06 11:03:03;;;;;;;10.20;7.23;;;27.00;51.00;;;;;;5034953;28;20209;-95
2022/05/06 11:05:33;;;;;;;10.90;8.10;;;27.10;50.40;;;;;;5036135;28;20232;-93
2022/05/06 11:08:13;;;;;;;7.47;6.43;;;27.20;49.50;;;;;;5045251;28;20204;-95
2022/05/06 11:10:50;;;;;;;11.33;7.27;;;27.30;49.70;;;;;;5039702;28;20722;-96
2022/05/06 11:13:19;;;;;;;11.43;8.23;;;27.40;48.70;;;;;;5042716;28;20230;-93
2022/05/06 11:15:51;;;;;;;9.60;7.03;;;27.50;49.10;;;;;;5044890;28;20218;-95
2022/05/06 11:18:19;;;;;;;8.27;7.10;;;27.50;48.40;;;;;;5047212;28;20204;-94
2022/05/06 11:20:46;;;;;;;12.10;8.00;;;27.50;48.10;;;;;;5047590;28;20263;-94
2022/05/06 11:23:18;;;;;;;7.53;6.43;;;27.50;49.20;;;;;;5048842;28;20232;-96
2022/05/06 11:26:01;;;;;;;8.23;6.87;;;27.40;47.90;;;;;;5039756;28;20209;-94
2022/05/06 11:31:36;;;;;;;7.50;6.77;;;27.30;48.30;;;;;;5013830;28;20211;-95
2022/05/06 11:34:13;;;;;;;10.00;8.47;;;27.20;47.60;;;;;;5031404;28;20569;-96
2022/05/06 11:36:48;;;;;;;8.00;6.60;;;27.20;46.60;;;;;;5038762;28;20216;-95
2022/05/06 11:39:17;;;;;;;8.67;7.27;;;27.10;47.90;;;;;;5057392;22;20261;-95
2022/05/06 11:41:57;;;;;;;9.17;6.40;;;27.10;48.40;;;;;;5059679;28;20204;-96
2022/05/06 11:47:31;;;;;;;9.30;8.13;;;27.10;47.00;;;;;;5068224;28;20200;-93
2022/05/06 11:49:59;;;;;;;8.00;6.20;;;27.00;46.30;;;;;;5057504;28;20270;-95
2022/05/06 11:52:30;;;;;;;9.97;7.07;;;27.00;47.70;;;;;;5067974;28;20207;-96
2022/05/06 11:55:17;;;;;;;7.63;6.60;;;27.00;47.60;;;;;;5049165;28;20259;-96
2022/05/06 11:58:03;;;;;;;7.23;6.37;;;27.00;47.60;;;;;;5065608;28;20196;-95
2022/05/06 12:00:34;;;;;;;10.40;7.03;;;26.90;47.70;;;;;;5063163;28;20196;-96
2022/05/06 12:03:09;;;;;;;9.83;6.07;;;26.90;47.70;;;;;;5059665;28;20219;-96
2022/05/06 12:05:41;;;;;;;9.77;7.63;;;27.00;47.30;;;;;;5045586;28;20296;-95
2022/05/06 12:08:27;;;;;;;8.20;6.97;;;27.00;46.70;;;;;;5058956;28;20264;-95
2022/05/06 12:11:08;;;;;;;9.67;6.87;;;27.00;47.40;;;;;;5062492;28;20667;-96
2022/05/06 12:13:53;;;;;;;10.73;8.13;;;27.10;47.20;;;;;;5056819;28;20208;-96
2022/05/06 12:16:25;;;;;;;10.33;8.37;;;27.00;46.40;;;;;;5043329;28;20295;-96
2022/05/06 12:22:26;;;;;;;8.53;7.23;;;27.00;47.40;;;;;;5053433;28;20756;-94
2022/05/06 12:24:58;;;;;;;9.63;8.33;;;27.00;47.80;;;;;;5046941;28;20232;-95
2022/05/06 12:28:07;;;;;;;9.63;7.63;;;27.10;47.40;;;;;;5053095;28;20208;-96
2022/05/06 12:30:40;;;;;;;9.47;7.67;;;27.10;47.70;;;;;;5053487;28;20219;-96
2022/05/06 12:33:22;;;;;;;14.20;9.20;;;27.20;47.90;;;;;;5050873;28;20582;-96
2022/05/06 12:36:27;;;;;;;7.70;6.90;;;27.30;46.80;;;;;;5054525;22;20271;-96
2022/05/06 12:39:21;;;;;;;11.50;8.13;;;27.50;47.30;;;;;;5037514;28;20577;-96
2022/05/06 12:41:50;;;;;;;16.00;9.53;;;27.70;47.10;;;;;;5037748;28;20205;-96
2022/05/06 12:44:22;;;;;;;11.37;8.47;;;27.80;47.00;;;;;;5034718;28;20236;-95
2022/05/06 12:46:56;;;;;;;17.90;10.77;;;27.90;46.10;;;;;;5038318;28;20201;-96
2022/05/06 12:49:47;;;;;;;9.43;7.17;;;27.90;45.50;;;;;;5034834;28;20205;-95
2022/05/06 12:52:24;;;;;;;9.93;7.07;;;28.00;46.50;;;;;;5043101;28;20209;-96
2022/05/06 12:55:14;;;;;;;8.23;7.00;;;28.10;46.20;;;;;;5045855;28;20231;-96
2022/05/06 13:04:21;;;;;;;14.17;9.03;;;28.30;45.30;;;;;;4967902;28;20230;-96
2022/05/06 13:06:56;;;;;;;10.10;7.73;;;28.40;45.30;;;;;;4980781;28;20298;-96
2022/05/06 13:09:28;;;;;;;10.57;8.27;;;28.40;45.00;;;;;;4979903;28;21620;-96
2022/05/06 13:12:01;;;;;;;10.47;8.63;;;28.50;45.20;;;;;;5018010;28;20209;-96
2022/05/06 13:14:37;;;;;;;9.23;7.53;;;28.50;44.60;;;;;;5038358;28;20204;-95
2022/05/06 13:20:23;;;;;;;12.23;8.20;;;28.70;45.30;;;;;;5015840;28;20201;-95
2022/05/06 13:23:42;;;;;;;11.90;8.40;;;28.80;44.70;;;;;;5042128;28;20268;-96
2022/05/06 13:26:09;;;;;;;7.80;7.00;;;29.00;44.50;;;;;;5041271;28;20293;-96
2022/05/06 13:32:35;;;;;;;16.27;8.70;;;29.20;43.80;;;;;;4978675;28;20274;-95
2022/05/06 13:35:19;;;;;;;11.60;8.00;;;29.30;43.50;;;;;;4976597;28;20238;-93
2022/05/06 13:38:23;;;;;;;9.03;6.93;;;29.50;44.20;;;;;;5037241;28;20260;-96
2022/05/06 13:40:57;;;;;;;9.83;7.77;;;29.60;43.20;;;;;;5046030;28;20649;-96
2022/05/06 13:43:24;;;;;;;11.67;8.40;;;29.60;43.00;;;;;;5037278;28;20661;-95
2022/05/06 13:45:57;;;;;;;9.03;6.03;;;29.70;44.00;;;;;;5040494;28;20205;-96
2022/05/06 13:48:27;;;;;;;10.73;8.10;;;29.70;43.30;;;;;;5037583;28;20198;-96
2022/05/06 13:54:20;;;;;;;10.57;7.50;;;29.80;42.40;;;;;;5227856;22;20239;-96
2022/05/06 13:59:40;;;;;;;12.37;8.07;;;30.00;42.10;;;;;;5052054;28;20216;-96
2022/05/06 14:02:12;;;;;;;7.22;6.50;;;30.10;42.60;;;;;;5055763;28;20270;-96
2022/05/06 14:04:42;;;;;;;10.93;7.90;;;30.10;42.10;;;;;;5055064;28;20228;-95
2022/05/06 14:07:17;;;;;;;6.53;5.60;;;30.20;42.20;;;;;;5056187;28;20204;-94
2022/05/06 14:13:14;;;;;;;10.13;7.33;;;30.20;41.90;;;;;;5064552;22;20855;-95
2022/05/06 14:15:42;;;;;;;11.88;8.00;;;30.30;41.50;;;;;;5058356;28;20205;-95
2022/05/06 14:18:34;;;;;;;8.15;6.38;;;30.30;42.30;;;;;;5062420;28;20562;-95
2022/05/06 14:21:49;;;;;;;;;;;;;;;;;;;;;
2022/05/06 14:24:22;;;;;;;6.40;5.45;;;30.50;41.10;;;;;;5056374;28;20216;-93
2022/05/06 14:26:55;;;;;;;9.73;6.53;;;30.50;41.60;;;;;;5055777;28;20228;-96
2022/05/06 14:29:24;;;;;;;9.13;6.40;;;30.50;40.90;;;;;;5053144;28;20204;-93
2022/05/06 14:32:03;;;;;;;7.35;5.28;;;30.50;41.00;;;;;;5037127;28;20208;-96
2022/05/06 14:34:30;;;;;;;11.55;6.78;;;30.50;40.60;;;;;;5047757;28;20204;-94
2022/05/06 14:37:09;;;;;;;7.45;5.55;;;30.50;41.20;;;;;;5055991;28;20224;-94
2022/05/06 14:39:40;;;;;;;5.43;4.93;;;30.50;41.40;;;;;;5054325;28;20290;-96
2022/05/06 14:42:09;;;;;;;7.15;5.53;;;30.50;41.60;;;;;;5063754;28;20241;-94
2022/05/06 14:47:24;;;;;;;7.83;6.40;;;30.50;40.80;;;;;;5064802;22;20303;-95
2022/05/06 14:49:55;;;;;;;8.87;5.90;;;30.50;40.80;;;;;;5031756;28;20204;-94
2022/05/06 14:52:23;;;;;;;10.73;6.40;;;30.40;40.90;;;;;;5029378;28;20201;-93
2022/05/06 14:54:52;;;;;;;13.33;7.63;;;30.30;40.70;;;;;;5038706;22;20235;-94
2022/05/06 14:57:20;;;;;;;9.82;5.88;;;30.30;40.50;;;;;;5049256;28;20731;-94
2022/05/06 14:59:48;;;;;;;11.90;6.70;;;30.20;40.60;;;;;;5046143;28;20266;-94
2022/05/06 15:02:16;;;;;;;6.83;5.57;;;30.20;40.70;;;;;;5051268;28;20652;-92
2022/05/06 15:04:47;;;;;;;12.43;7.77;;;30.10;40.40;;;;;;5047816;28;20224;-94
2022/05/06 15:10:39;;;;;;;8.40;6.03;;;29.80;40.50;;;;;;5017922;28;20292;-93
2022/05/06 15:13:09;;;;;;;9.37;5.90;;;29.80;40.80;;;;;;5046389;28;20208;-95
2022/05/06 15:15:39;;;;;;;11.47;6.47;;;29.60;40.50;;;;;;5058309;28;20210;-93
2022/05/06 15:21:31;;;;;;;8.40;5.63;;;29.20;40.70;;;;;;5052783;28;20210;-96
2022/05/06 15:23:59;;;;;;;10.77;6.73;;;29.10;41.20;;;;;;5058807;28;20200;-91
2022/05/06 15:26:48;;;;;;;9.27;5.90;;;28.90;41.10;;;;;;5057212;28;20213;-93
2022/05/06 15:29:57;;;;;;;6.17;4.77;;;28.70;41.20;;;;;;5061185;28;20207;-95
2022/05/06 15:32:28;;;;;;;11.20;6.70;;;28.60;41.00;;;;;;5051515;28;20200;-95
2022/05/06 15:35:03;;;;;;;8.33;5.80;;;28.40;41.30;;;;;;5059146;28;20242;-93
2022/05/06 15:37:32;;;;;;;6.87;4.90;;;28.30;41.60;;;;;;5056514;28;20235;-94
2022/05/06 15:39:59;;;;;;;9.07;5.47;;;28.30;41.90;;;;;;5065510;28;20187;-93
2022/05/06 15:42:32;;;;;;;10.17;5.67;;;28.10;42.10;;;;;;5073002;28;20204;-96
2022/05/06 15:48:15;;;;;;;8.83;5.70;;;28.00;41.90;;;;;;5052130;28;20200;-96
2022/05/06 15:50:52;;;;;;;8.50;6.20;;;28.00;41.90;;;;;;5070428;28;20207;-96
2022/05/06 15:53:21;;;;;;;10.13;5.67;;;27.90;42.30;;;;;;5054180;28;20200;-96
2022/05/06 15:55:50;;;;;;;9.67;6.00;;;27.90;42.50;;;;;;5063479;28;20274;-96
2022/05/06 15:58:27;;;;;;;9.83;4.83;;;27.80;42.40;;;;;;5058617;28;20204;-95
2022/05/06 16:00:57;;;;;;;9.43;5.60;;;27.80;42.50;;;;;;5054201;28;20207;-96
2022/05/06 16:03:29;;;;;;;6.20;4.57;;;27.70;42.30;;;;;;5058627;28;20212;-96
2022/05/06 16:05:57;;;;;;;5.97;4.87;;;27.70;42.60;;;;;;5056937;28;20251;-96
2022/05/06 16:08:31;;;;;;;8.73;5.40;;;27.70;42.60;;;;;;5052194;28;20286;-95
2022/05/06 16:10:58;;;;;;;7.57;4.17;;;27.60;42.50;;;;;;5053843;28;20649;-94
2022/05/06 16:13:27;;;;;;;10.20;5.63;;;27.60;42.70;;;;;;5054660;28;20250;-95
2022/05/06 16:15:55;;;;;;;6.83;3.77;;;27.60;42.60;;;;;;5058006;28;20239;-92
2022/05/06 16:18:29;;;;;;;9.40;5.37;;;27.50;42.70;;;;;;5055364;28;20230;-95
2022/05/06 16:20:57;;;;;;;6.23;3.50;;;27.50;42.70;;;;;;5058303;28;20214;-96
2022/05/06 16:23:32;;;;;;;9.87;4.77;;;27.50;42.90;;;;;;5058139;28;20616;-94
2022/05/06 16:26:09;;;;;;;11.80;6.40;;;27.50;42.90;;;;;;5057690;28;20234;-95